createdAt,value
2018-12-29T00:00:54.534Z,28.63
2018-12-29T00:03:22.074Z,27.37
2018-12-29T00:05:49.573Z,29.40
2018-12-29T00:08:17.161Z,29.17
2018-12-29T00:10:44.659Z,30.27
2018-12-29T00:13:12.210Z,31.37
2018-12-29T00:15:39.752Z,29.90
2018-12-29T00:18:07.269Z,30.10
2018-12-29T00:20:34.837Z,31.30
2018-12-29T00:23:02.314Z,28.93
2018-12-29T00:25:29.863Z,28.00
2018-12-29T00:27:57.359Z,28.93
2018-12-29T00:30:24.819Z,31.67
2018-12-29T00:32:52.338Z,31.57
2018-12-29T00:35:20.205Z,29.17
2018-12-29T00:37:47.748Z,31.73
2018-12-29T00:40:15.216Z,30.90
2018-12-29T00:42:42.687Z,30.90
2018-12-29T00:45:10.230Z,32.67
2018-12-29T00:47:37.758Z,30.13
2018-12-29T00:50:05.315Z,32.03
2018-12-29T00:52:32.789Z,29.87
2018-12-29T00:55:00.372Z,33.37
2018-12-29T00:57:27.885Z,33.03
2018-12-29T00:59:55.456Z,33.20
2018-12-29T01:02:23.174Z,33.43
2018-12-29T01:04:50.630Z,31.17
2018-12-29T01:07:18.112Z,31.03
2018-12-29T01:09:45.607Z,29.67
2018-12-29T01:12:13.876Z,31.47
2018-12-29T01:14:41.341Z,32.07
2018-12-29T01:17:08.849Z,31.97
2018-12-29T01:19:36.361Z,30.87
2018-12-29T01:22:03.871Z,30.40
2018-12-29T01:24:31.344Z,31.73
2018-12-29T01:26:58.859Z,29.40
2018-12-29T01:29:26.350Z,29.67
2018-12-29T01:31:53.835Z,30.30
2018-12-29T01:34:21.344Z,29.53
2018-12-29T01:36:48.824Z,30.40
2018-12-29T01:39:16.336Z,29.50
2018-12-29T01:41:43.870Z,31.10
2018-12-29T01:44:11.343Z,30.50
2018-12-29T01:46:38.869Z,30.50
2018-12-29T01:49:06.346Z,27.80
2018-12-29T01:51:33.825Z,27.87
2018-12-29T01:54:01.536Z,28.57
2018-12-29T01:56:29.028Z,26.83
2018-12-29T01:58:56.515Z,26.70
2018-12-29T02:01:24.089Z,28.70
2018-12-29T02:03:51.545Z,27.80
2018-12-29T02:06:19.020Z,27.70
2018-12-29T02:08:46.535Z,27.87
2018-12-29T02:11:14.041Z,27.60
2018-12-29T02:13:41.572Z,28.37
2018-12-29T02:16:09.064Z,23.93
2018-12-29T02:18:36.561Z,25.17
2018-12-29T02:21:04.058Z,18.87
2018-12-29T02:23:31.593Z,25.77
2018-12-29T02:25:59.079Z,25.13
2018-12-29T02:28:26.538Z,20.87
2018-12-29T02:30:54.047Z,26.53
2018-12-29T02:33:21.535Z,24.53
2018-12-29T02:35:49.072Z,22.37
2018-12-29T02:38:16.588Z,25.20
2018-12-29T02:40:44.118Z,24.20
2018-12-29T02:43:11.861Z,18.23
2018-12-29T02:45:39.337Z,23.87
2018-12-29T02:48:06.820Z,25.40
2018-12-29T02:50:34.334Z,24.13
2018-12-29T02:53:01.842Z,26.27
2018-12-29T02:55:29.323Z,26.03
2018-12-29T02:57:56.811Z,24.33
2018-12-29T03:00:24.325Z,22.77
2018-12-29T03:02:51.796Z,24.60
2018-12-29T03:05:19.291Z,21.77
2018-12-29T03:07:46.803Z,21.63
2018-12-29T03:10:15.149Z,24.93
2018-12-29T03:12:42.653Z,25.20
2018-12-29T03:15:10.147Z,18.33
2018-12-29T03:17:37.619Z,24.47
2018-12-29T03:20:05.129Z,20.17
2018-12-29T03:22:32.607Z,17.87
2018-12-29T03:25:00.374Z,22.63
2018-12-29T03:27:27.994Z,23.57
2018-12-29T03:29:55.484Z,23.40
2018-12-29T03:32:22.965Z,24.50
2018-12-29T03:34:50.735Z,25.77
2018-12-29T03:37:18.214Z,23.30
2018-12-29T03:39:45.663Z,24.63
2018-12-29T03:42:13.188Z,23.43
2018-12-29T03:44:40.703Z,22.23
2018-12-29T03:47:08.163Z,22.70
2018-12-29T03:49:35.637Z,25.73
2018-12-29T03:52:03.128Z,24.93
2018-12-29T03:54:30.652Z,24.03
2018-12-29T03:56:58.139Z,26.37
2018-12-29T03:59:25.600Z,26.40
2018-12-29T04:01:53.157Z,27.53
2018-12-29T04:04:20.622Z,25.77
2018-12-29T04:06:48.496Z,27.40
2018-12-29T04:09:35.447Z,26.10
2018-12-29T04:12:17.287Z,26.73
2018-12-29T04:14:44.796Z,27.27
2018-12-29T04:17:12.277Z,27.30
2018-12-29T04:19:39.962Z,25.93
2018-12-29T04:22:07.429Z,26.93
2018-12-29T04:24:34.908Z,27.13
2018-12-29T04:27:02.585Z,25.70
2018-12-29T04:29:30.051Z,25.20
2018-12-29T04:31:57.492Z,26.77
2018-12-29T04:34:25.302Z,24.23
2018-12-29T04:36:52.804Z,26.53
2018-12-29T04:39:20.286Z,26.40
2018-12-29T04:41:48.049Z,25.03
2018-12-29T04:44:15.545Z,25.47
2018-12-29T04:46:43.004Z,20.93
2018-12-29T04:49:10.526Z,26.50
2018-12-29T04:51:38.027Z,26.10
2018-12-29T04:54:05.507Z,22.63
2018-12-29T04:56:33.226Z,25.20
2018-12-29T04:59:00.719Z,24.40
2018-12-29T05:01:28.149Z,24.63
2018-12-29T05:03:55.637Z,18.83
2018-12-29T05:06:23.172Z,25.67
2018-12-29T05:08:50.632Z,16.73
2018-12-29T05:11:18.365Z,23.50
2018-12-29T05:13:45.850Z,25.53
2018-12-29T05:16:13.354Z,25.50
2018-12-29T05:18:40.889Z,26.87
2018-12-29T05:21:08.377Z,25.90
2018-12-29T05:23:35.851Z,27.80
2018-12-29T05:26:03.313Z,26.30
2018-12-29T05:28:30.807Z,20.97
2018-12-29T05:30:58.298Z,24.77
2018-12-29T05:33:25.775Z,24.77
2018-12-29T05:35:53.254Z,22.77
2018-12-29T05:38:20.752Z,24.97
2018-12-29T05:40:48.209Z,23.77
2018-12-29T05:43:16.140Z,25.67
2018-12-29T05:45:43.595Z,25.03
2018-12-29T05:48:11.072Z,22.30
2018-12-29T05:50:38.606Z,15.77
2018-12-29T05:53:06.109Z,19.37
2018-12-29T05:55:33.558Z,19.60
2018-12-29T05:58:01.027Z,26.13
2018-12-29T06:00:28.690Z,26.03
2018-12-29T06:02:56.191Z,24.93
2018-12-29T06:05:23.676Z,25.83
2018-12-29T06:07:51.185Z,22.23
2018-12-29T06:10:18.697Z,25.13
2018-12-29T06:12:46.248Z,24.33
2018-12-29T06:15:13.717Z,21.93
2018-12-29T06:17:41.219Z,23.03
2018-12-29T06:20:08.704Z,24.27
2018-12-29T06:22:36.168Z,23.13
2018-12-29T06:25:03.740Z,22.33
2018-12-29T06:27:31.236Z,22.87
2018-12-29T06:29:58.693Z,23.33
2018-12-29T06:32:26.276Z,23.90
2018-12-29T06:34:53.759Z,26.23
2018-12-29T06:37:21.219Z,24.53
2018-12-29T06:39:48.704Z,23.30
2018-12-29T06:42:16.187Z,25.37
2018-12-29T06:44:43.714Z,23.57
2018-12-29T06:47:11.252Z,19.73
2018-12-29T06:49:38.723Z,26.13
2018-12-29T06:52:06.218Z,20.27
2018-12-29T06:54:33.904Z,24.47
2018-12-29T06:57:01.376Z,17.53
2018-12-29T06:59:28.934Z,15.13
2018-12-29T07:01:56.521Z,24.40
2018-12-29T07:04:23.901Z,22.83
2018-12-29T07:06:51.385Z,16.37
2018-12-29T07:09:18.841Z,21.23
2018-12-29T07:11:46.369Z,24.13
2018-12-29T07:14:13.865Z,21.70
2018-12-29T07:16:42.445Z,20.20
2018-12-29T07:19:10.194Z,22.03
2018-12-29T07:21:37.688Z,21.47
2018-12-29T07:24:05.193Z,21.67
2018-12-29T07:26:32.704Z,21.07
2018-12-29T07:29:00.197Z,21.90
2018-12-29T07:31:28.047Z,23.23
2018-12-29T07:33:55.552Z,18.13
2018-12-29T07:36:23.005Z,19.30
2018-12-29T07:38:50.599Z,19.70
2018-12-29T07:41:38.585Z,18.60
2018-12-29T07:44:06.205Z,20.47
2018-12-29T07:46:33.648Z,19.93
2018-12-29T07:49:01.182Z,19.60
2018-12-29T07:51:28.675Z,14.17
2018-12-29T07:53:57.818Z,20.77
2018-12-29T07:56:25.426Z,21.17
2018-12-29T07:58:52.961Z,19.30
2018-12-29T08:01:20.436Z,20.13
2018-12-29T08:03:47.918Z,17.27
2018-12-29T08:06:16.481Z,23.00
2018-12-29T08:08:43.940Z,24.60
2018-12-29T08:11:11.481Z,22.80
2018-12-29T08:13:39.012Z,24.50
2018-12-29T08:16:06.469Z,22.80
2018-12-29T08:18:33.988Z,23.13
2018-12-29T08:21:01.537Z,24.07
2018-12-29T08:23:29.021Z,21.37
2018-12-29T08:25:56.550Z,22.57
2018-12-29T08:28:24.021Z,22.13
2018-12-29T08:30:51.489Z,20.87
2018-12-29T08:33:19.069Z,21.83
2018-12-29T08:35:46.608Z,20.70
2018-12-29T08:38:14.079Z,20.93
2018-12-29T08:40:41.954Z,22.07
2018-12-29T08:43:09.438Z,20.03
2018-12-29T08:45:37.005Z,22.43
2018-12-29T08:48:04.492Z,18.93
2018-12-29T08:50:31.994Z,19.17
2018-12-29T08:52:59.511Z,18.97
2018-12-29T08:55:26.998Z,19.97
2018-12-29T08:57:54.556Z,20.03
2018-12-29T09:00:22.042Z,19.47
2018-12-29T09:02:49.569Z,18.73
2018-12-29T09:05:17.087Z,18.80
2018-12-29T09:07:44.556Z,18.53
2018-12-29T09:10:12.087Z,17.43
2018-12-29T09:12:39.643Z,18.87
2018-12-29T09:15:07.132Z,17.90
2018-12-29T09:17:34.874Z,17.97
2018-12-29T09:20:02.404Z,18.63
2018-12-29T09:22:29.895Z,19.00
2018-12-29T09:24:57.416Z,17.40
2018-12-29T09:27:24.943Z,18.67
2018-12-29T09:29:52.417Z,18.40
2018-12-29T09:32:19.955Z,18.50
2018-12-29T09:34:47.460Z,18.73
2018-12-29T09:37:15.031Z,19.63
2018-12-29T09:39:42.500Z,19.57
2018-12-29T09:42:10.096Z,20.83
2018-12-29T09:44:37.602Z,21.80
2018-12-29T09:47:05.079Z,20.70
2018-12-29T09:49:32.988Z,22.03
2018-12-29T09:52:00.485Z,19.27
2018-12-29T09:54:27.945Z,22.27
2018-12-29T09:56:55.462Z,22.67
2018-12-29T09:59:23.006Z,22.83
2018-12-29T10:01:50.496Z,23.90
2018-12-29T10:04:17.958Z,24.10
2018-12-29T10:06:45.486Z,22.07
2018-12-29T10:09:12.973Z,23.40
2018-12-29T10:11:40.439Z,23.93
2018-12-29T10:14:07.948Z,24.20
2018-12-29T10:16:35.482Z,22.93
2018-12-29T10:19:02.983Z,23.10
2018-12-29T10:21:30.489Z,23.47
2018-12-29T10:23:57.961Z,23.57
2018-12-29T10:26:25.848Z,22.70
2018-12-29T10:28:53.346Z,23.00
2018-12-29T10:31:20.870Z,23.57
2018-12-29T10:33:48.418Z,21.47
2018-12-29T10:36:15.875Z,22.30
2018-12-29T10:38:43.403Z,24.10
2018-12-29T10:41:10.925Z,22.50
2018-12-29T10:43:38.481Z,21.87
2018-12-29T10:46:06.008Z,21.90
2018-12-29T10:48:33.464Z,21.10
2018-12-29T10:51:00.954Z,23.37
2018-12-29T10:53:28.470Z,21.23
2018-12-29T10:55:55.946Z,23.73
2018-12-29T10:58:23.513Z,23.53
2018-12-29T11:00:51.093Z,23.57
2018-12-29T11:03:18.625Z,22.97
2018-12-29T11:05:46.116Z,23.97
2018-12-29T11:08:13.665Z,23.10
2018-12-29T11:10:41.185Z,22.83
2018-12-29T11:13:08.722Z,22.27
2018-12-29T11:15:36.199Z,20.27
2018-12-29T11:18:03.721Z,23.00
2018-12-29T11:20:31.252Z,21.30
2018-12-29T11:22:58.751Z,21.13
2018-12-29T11:25:26.247Z,21.60
2018-12-29T11:27:53.728Z,21.20
2018-12-29T11:30:21.279Z,21.23
2018-12-29T11:32:48.772Z,21.40
2018-12-29T11:35:16.352Z,21.53
2018-12-29T11:37:44.130Z,22.20
2018-12-29T11:40:11.715Z,23.10
2018-12-29T11:42:39.265Z,20.07
2018-12-29T11:45:06.746Z,20.90
2018-12-29T11:47:34.275Z,21.40
2018-12-29T11:50:01.766Z,21.57
2018-12-29T11:52:29.217Z,20.70
2018-12-29T11:54:56.720Z,21.67
2018-12-29T11:57:24.211Z,20.63
2018-12-29T11:59:51.935Z,21.73
2018-12-29T12:02:24.398Z,21.27
2018-12-29T12:04:49.117Z,23.70
2018-12-29T12:07:16.657Z,24.90
2018-12-29T12:09:44.420Z,25.00
2018-12-29T12:12:11.952Z,26.63
2018-12-29T12:14:39.484Z,24.00
2018-12-29T12:17:07.216Z,22.43
2018-12-29T12:19:34.726Z,21.53
2018-12-29T12:22:02.472Z,24.60
2018-12-29T12:24:29.961Z,21.57
2018-12-29T12:26:57.452Z,27.80
2018-12-29T12:29:25.090Z,22.87
2018-12-29T12:31:52.616Z,20.53
2018-12-29T12:34:20.103Z,23.43
2018-12-29T12:36:47.829Z,22.20
2018-12-29T12:39:15.287Z,24.60
2018-12-29T12:41:42.757Z,22.83
2018-12-29T12:44:10.559Z,22.43
2018-12-29T12:46:41.539Z,21.63
2018-12-29T12:49:09.328Z,21.90
2018-12-29T12:51:37.118Z,23.43
2018-12-29T12:54:05.089Z,21.57
2018-12-29T12:56:32.585Z,23.83
2018-12-29T12:59:00.427Z,21.93
2018-12-29T13:01:28.892Z,19.17
2018-12-29T13:03:56.387Z,22.60
2018-12-29T13:06:23.931Z,22.47
2018-12-29T13:08:51.953Z,25.60
2018-12-29T13:11:19.430Z,22.17
2018-12-29T13:13:46.921Z,22.13
2018-12-29T13:16:14.457Z,23.27
2018-12-29T13:18:41.935Z,21.43
2018-12-29T13:21:09.624Z,21.57
2018-12-29T13:23:37.431Z,22.77
2018-12-29T13:26:05.059Z,21.73
2018-12-29T13:28:32.997Z,21.13
2018-12-29T13:31:00.520Z,21.83
2018-12-29T13:33:28.108Z,21.47
2018-12-29T13:35:55.582Z,21.67
2018-12-29T13:38:23.100Z,21.47
2018-12-29T13:40:50.666Z,20.00
2018-12-29T13:43:18.188Z,21.00
2018-12-29T13:45:45.697Z,22.60
2018-12-29T13:48:20.396Z,22.70
2018-12-29T13:50:42.558Z,23.20
2018-12-29T13:53:10.025Z,22.07
2018-12-29T13:55:37.697Z,21.03
2018-12-29T13:58:05.621Z,22.67
2018-12-29T14:00:33.119Z,23.43
2018-12-29T14:03:00.677Z,24.07
2018-12-29T14:05:28.150Z,22.10
2018-12-29T14:07:55.666Z,21.63
2018-12-29T14:10:23.184Z,20.20
2018-12-29T14:12:50.670Z,20.47
2018-12-29T14:15:18.695Z,20.80
2018-12-29T14:17:46.552Z,20.80
2018-12-29T14:20:14.042Z,20.57
2018-12-29T14:22:41.583Z,20.83
2018-12-29T14:25:09.056Z,20.23
2018-12-29T14:27:36.548Z,20.53
2018-12-29T14:30:04.517Z,20.23
2018-12-29T14:32:32.020Z,19.37
2018-12-29T14:34:59.554Z,19.37
2018-12-29T14:37:27.037Z,20.47
2018-12-29T14:39:54.510Z,19.30
2018-12-29T14:42:22.010Z,20.03
2018-12-29T14:44:49.511Z,21.77
2018-12-29T14:47:17.193Z,21.17
2018-12-29T14:49:44.688Z,20.43
2018-12-29T14:52:12.169Z,19.13
2018-12-29T14:54:39.745Z,19.87
2018-12-29T14:57:07.640Z,21.40
2018-12-29T14:59:36.342Z,20.47
2018-12-29T15:02:03.893Z,21.00
2018-12-29T15:04:31.361Z,21.10
2018-12-29T15:06:58.860Z,23.10
2018-12-29T15:09:26.807Z,21.60
2018-12-29T15:11:54.342Z,21.03
2018-12-29T15:14:22.070Z,20.70
2018-12-29T15:16:51.958Z,21.50
2018-12-29T15:19:21.128Z,21.13
2018-12-29T15:21:48.690Z,21.03
2018-12-29T15:24:16.191Z,21.77
2018-12-29T15:26:43.726Z,20.20
2018-12-29T15:29:11.616Z,21.23
2018-12-29T15:31:40.277Z,20.93
2018-12-29T15:34:07.728Z,20.80
2018-12-29T15:36:35.667Z,20.77
2018-12-29T15:39:04.904Z,21.57
2018-12-29T15:41:32.451Z,21.67
2018-12-29T15:44:22.946Z,21.83
2018-12-29T15:46:52.931Z,21.33
2018-12-29T15:49:21.100Z,22.23
2018-12-29T15:51:48.732Z,21.10
2018-12-29T15:54:16.879Z,21.70
2018-12-29T15:56:46.698Z,21.03
2018-12-29T15:59:14.400Z,28.17
2018-12-29T16:01:44.330Z,28.73
2018-12-29T16:04:11.801Z,27.70
2018-12-29T16:06:39.337Z,23.47
2018-12-29T16:09:07.177Z,23.23
2018-12-29T16:11:35.169Z,21.03
2018-12-29T16:14:02.642Z,22.03
2018-12-29T16:16:30.635Z,22.47
2018-12-29T16:18:59.339Z,22.60
2018-12-29T16:21:27.365Z,21.27
2018-12-29T16:23:57.726Z,21.03
2018-12-29T16:26:25.195Z,20.20
2018-12-29T16:28:55.893Z,21.37
2018-12-29T16:31:23.459Z,21.03
2018-12-29T16:33:53.894Z,21.37
2018-12-29T16:36:20.599Z,21.93
2018-12-29T16:38:49.467Z,20.93
2018-12-29T16:41:17.155Z,21.10
2018-12-29T16:43:44.634Z,19.97
2018-12-29T16:46:12.496Z,21.83
2018-12-29T16:48:40.033Z,23.70
2018-12-29T16:51:07.772Z,21.33
2018-12-29T16:53:35.245Z,20.47
2018-12-29T16:56:02.952Z,22.93
2018-12-29T16:58:30.487Z,20.33
2018-12-29T17:01:00.579Z,20.03
2018-12-29T17:03:34.770Z,21.10
2018-12-29T17:06:02.430Z,19.63
2018-12-29T17:08:49.971Z,20.90
2018-12-29T17:11:17.423Z,20.70
2018-12-29T17:13:45.247Z,19.60
2018-12-29T17:16:12.824Z,20.37
2018-12-29T17:18:40.438Z,21.17
2018-12-29T17:21:08.281Z,20.33
2018-12-29T17:23:35.745Z,18.87
2018-12-29T17:26:03.299Z,19.63
2018-12-29T17:28:31.118Z,20.87
2018-12-29T17:30:58.600Z,19.10
2018-12-29T17:33:26.097Z,19.80
2018-12-29T17:35:53.853Z,19.67
2018-12-29T17:38:21.333Z,19.67
2018-12-29T17:40:48.856Z,19.47
2018-12-29T17:43:16.528Z,21.73
2018-12-29T17:45:44.036Z,19.20
2018-12-29T17:48:11.542Z,22.13
2018-12-29T17:50:39.377Z,28.97
2018-12-29T17:53:06.897Z,21.80
2018-12-29T17:55:34.373Z,21.33
2018-12-29T17:58:04.610Z,21.73
2018-12-29T18:00:32.099Z,20.17
2018-12-29T18:02:59.919Z,22.73
2018-12-29T18:05:29.189Z,20.07
2018-12-29T18:07:56.796Z,20.90
2018-12-29T18:10:24.636Z,19.23
2018-12-29T18:12:52.531Z,19.67
2018-12-29T18:15:19.994Z,20.20
2018-12-29T18:17:47.789Z,20.80
2018-12-29T18:20:15.663Z,19.20
2018-12-29T18:22:43.189Z,21.70
2018-12-29T18:25:10.688Z,21.30
2018-12-29T18:27:38.554Z,19.07
2018-12-29T18:30:06.181Z,20.83
2018-12-29T18:32:33.720Z,19.87
2018-12-29T18:35:01.334Z,19.77
2018-12-29T18:37:28.876Z,20.87
2018-12-29T18:39:56.901Z,19.60
2018-12-29T18:42:24.415Z,18.03
2018-12-29T18:44:51.909Z,20.77
2018-12-29T18:47:19.696Z,18.00
2018-12-29T18:49:47.188Z,20.70
2018-12-29T18:52:35.976Z,21.13
2018-12-29T18:55:04.060Z,20.27
2018-12-29T18:57:34.013Z,19.87
2018-12-29T19:00:03.992Z,19.70
2018-12-29T19:02:32.944Z,19.00
2018-12-29T19:05:00.589Z,19.50
2018-12-29T19:07:28.235Z,19.67
2018-12-29T19:09:55.911Z,20.23
2018-12-29T19:12:23.373Z,22.33
2018-12-29T19:14:50.852Z,20.97
2018-12-29T19:17:20.966Z,20.47
2018-12-29T19:19:48.917Z,21.57
2018-12-29T19:22:16.458Z,20.23
2018-12-29T19:24:43.983Z,19.90
2018-12-29T19:27:11.549Z,20.87
2018-12-29T19:29:39.679Z,20.10
2018-12-29T19:32:07.664Z,21.47
2018-12-29T19:34:35.548Z,22.23
2018-12-29T19:37:03.429Z,22.67
2018-12-29T19:39:31.301Z,22.87
2018-12-29T19:41:58.803Z,23.30
2018-12-29T19:44:26.713Z,20.37
2018-12-29T19:46:54.851Z,20.60
2018-12-29T19:49:22.371Z,17.57
2018-12-29T19:51:50.382Z,25.50
2018-12-29T19:54:18.260Z,23.33
2018-12-29T19:56:46.594Z,21.87
2018-12-29T19:59:14.566Z,22.77
2018-12-29T20:01:42.036Z,23.23
2018-12-29T20:04:09.913Z,22.73
2018-12-29T20:06:37.522Z,21.97
2018-12-29T20:09:06.250Z,21.50
2018-12-29T20:11:33.709Z,23.07
2018-12-29T20:14:01.222Z,22.87
2018-12-29T20:16:29.003Z,22.33
2018-12-29T20:18:56.485Z,24.27
2018-12-29T20:21:24.015Z,24.17
2018-12-29T20:23:51.529Z,21.40
2018-12-29T20:26:19.080Z,23.80
2018-12-29T20:28:46.592Z,23.90
2018-12-29T20:31:14.105Z,23.50
2018-12-29T20:33:43.606Z,23.70
2018-12-29T20:36:10.953Z,21.93
2018-12-29T20:38:38.702Z,21.67
2018-12-29T20:41:06.245Z,23.60
2018-12-29T20:43:34.172Z,24.07
2018-12-29T20:46:01.770Z,22.77
2018-12-29T20:48:29.211Z,22.33
2018-12-29T20:50:56.741Z,23.67
2018-12-29T20:53:24.228Z,25.33
2018-12-29T20:55:51.765Z,23.53
2018-12-29T20:58:19.573Z,23.97
2018-12-29T21:00:47.215Z,24.57
2018-12-29T21:03:14.702Z,25.13
2018-12-29T21:05:42.239Z,22.67
2018-12-29T21:08:09.886Z,24.20
2018-12-29T21:10:37.360Z,22.20
2018-12-29T21:13:05.187Z,22.87
2018-12-29T21:15:32.744Z,23.97
2018-12-29T21:18:00.268Z,27.37
2018-12-29T21:20:27.810Z,22.80
2018-12-29T21:22:55.296Z,26.20
2018-12-29T21:25:22.840Z,24.37
2018-12-29T21:27:50.328Z,23.40
2018-12-29T21:30:17.837Z,25.00
2018-12-29T21:32:45.585Z,25.00
2018-12-29T21:35:13.040Z,23.13
2018-12-29T21:37:40.519Z,25.20
2018-12-29T21:40:08.342Z,26.00
2018-12-29T21:42:35.785Z,23.73
2018-12-29T21:45:03.411Z,24.77
2018-12-29T21:47:31.155Z,23.50
2018-12-29T21:49:58.638Z,23.30
2018-12-29T21:52:26.154Z,25.17
2018-12-29T21:54:53.697Z,23.20
2018-12-29T21:57:21.277Z,24.03
2018-12-29T21:59:48.798Z,23.73
2018-12-29T22:02:16.335Z,23.87
2018-12-29T22:04:43.886Z,25.03
2018-12-29T22:07:11.392Z,24.47
2018-12-29T22:09:38.911Z,24.70
2018-12-29T22:12:06.408Z,24.67
2018-12-29T22:14:33.869Z,26.13
2018-12-29T22:17:01.395Z,23.80
2018-12-29T22:19:28.902Z,24.57
2018-12-29T22:21:56.576Z,25.27
2018-12-29T22:24:24.080Z,25.27
2018-12-29T22:26:51.650Z,26.40
2018-12-29T22:29:19.344Z,25.27
2018-12-29T22:31:46.861Z,25.37
2018-12-29T22:34:14.376Z,24.67
2018-12-29T22:36:44.944Z,26.73
2018-12-29T22:39:12.494Z,26.97
2018-12-29T22:41:40.062Z,26.60
2018-12-29T22:44:07.842Z,25.90
2018-12-29T22:46:35.366Z,25.43
2018-12-29T22:49:02.837Z,27.50
2018-12-29T22:51:30.452Z,27.60
2018-12-29T22:53:58.095Z,26.30
2018-12-29T22:56:27.083Z,22.57
2018-12-29T22:58:54.978Z,27.07
2018-12-29T23:01:22.616Z,28.37
2018-12-29T23:03:50.172Z,24.00
2018-12-29T23:06:19.607Z,24.10
2018-12-29T23:08:47.064Z,26.73
2018-12-29T23:11:14.611Z,26.00
2018-12-29T23:13:42.092Z,24.70
2018-12-29T23:16:09.577Z,23.93
2018-12-29T23:18:37.062Z,24.43
2018-12-29T23:21:04.789Z,22.97
2018-12-29T23:23:32.476Z,20.13
2018-12-29T23:26:00.427Z,21.60
2018-12-29T23:28:27.868Z,22.43
2018-12-29T23:30:55.771Z,20.53
2018-12-29T23:33:23.330Z,16.90
2018-12-29T23:35:50.842Z,22.87
2018-12-29T23:38:18.346Z,19.60
2018-12-29T23:40:45.891Z,17.47
2018-12-29T23:43:13.452Z,23.77
2018-12-29T23:45:41.228Z,20.47
2018-12-29T23:48:08.689Z,18.03
2018-12-29T23:50:36.200Z,22.00
2018-12-29T23:53:03.688Z,21.17
2018-12-29T23:55:31.664Z,15.40
2018-12-29T23:57:59.164Z,20.40
